createdAt,value
2022-11-29T00:01:42.188Z,20.73
2022-11-29T00:04:10.796Z,20.10
2022-11-29T00:06:39.492Z,20.70
2022-11-29T00:09:12.708Z,17.93
2022-11-29T00:11:59.853Z,18.60
2022-11-29T00:14:29.120Z,18.90
2022-11-29T00:17:02.372Z,21.33
2022-11-29T00:19:31.640Z,19.30
2022-11-29T00:22:00.099Z,19.67
2022-11-29T00:24:31.690Z,18.50
2022-11-29T00:27:00.381Z,18.20
2022-11-29T00:29:29.255Z,19.90
2022-11-29T00:31:57.289Z,17.73
2022-11-29T00:34:25.608Z,20.50
2022-11-29T00:36:53.762Z,18.80
2022-11-29T00:39:21.972Z,19.50
2022-11-29T00:41:51.578Z,18.00
2022-11-29T00:44:20.746Z,19.80
2022-11-29T00:46:49.861Z,18.20
2022-11-29T00:49:18.397Z,20.23
2022-11-29T00:51:46.621Z,17.93
2022-11-29T00:54:14.740Z,17.63
2022-11-29T00:56:43.091Z,18.87
2022-11-29T00:59:12.598Z,19.73
2022-11-29T01:01:40.746Z,17.60
2022-11-29T01:04:08.947Z,17.90
2022-11-29T01:06:37.073Z,19.27
2022-11-29T01:09:05.532Z,16.80
2022-11-29T01:11:33.954Z,18.73
2022-11-29T01:14:04.483Z,17.53
2022-11-29T01:16:34.225Z,17.63
2022-11-29T01:19:02.696Z,17.80
2022-11-29T01:21:31.346Z,17.30
2022-11-29T01:24:00.811Z,18.17
2022-11-29T01:26:30.965Z,17.70
2022-11-29T01:28:59.907Z,17.67
2022-11-29T01:31:30.619Z,18.20
2022-11-29T01:34:02.177Z,17.27
2022-11-29T01:36:30.564Z,17.40
2022-11-29T01:39:00.708Z,17.27
2022-11-29T01:41:32.042Z,18.70
2022-11-29T01:44:04.007Z,19.03
2022-11-29T01:46:34.813Z,15.93
2022-11-29T01:49:09.583Z,18.13
2022-11-29T01:51:40.598Z,19.30
2022-11-29T01:54:11.270Z,16.83
2022-11-29T01:56:40.123Z,17.63
2022-11-29T01:59:12.502Z,18.00
2022-11-29T02:01:40.715Z,17.37
2022-11-29T02:04:10.524Z,17.80
2022-11-29T02:06:40.374Z,17.43
2022-11-29T02:09:19.014Z,16.87
2022-11-29T02:12:07.267Z,16.30
2022-11-29T02:14:48.528Z,16.30
2022-11-29T02:17:25.928Z,16.23
2022-11-29T02:20:21.234Z,15.93
2022-11-29T02:22:57.628Z,17.30
2022-11-29T02:25:40.340Z,17.60
2022-11-29T02:28:56.428Z,18.17
2022-11-29T02:31:52.053Z,16.07
2022-11-29T02:34:39.250Z,18.33
2022-11-29T02:37:29.854Z,16.87
2022-11-29T02:40:27.025Z,18.80
2022-11-29T02:43:18.175Z,17.00
2022-11-29T02:45:54.892Z,18.80
2022-11-29T02:48:42.729Z,18.47
2022-11-29T02:51:19.233Z,17.83
2022-11-29T02:53:56.999Z,19.10
2022-11-29T02:56:30.686Z,16.70
2022-11-29T02:59:04.741Z,18.03
2022-11-29T03:01:41.272Z,17.57
2022-11-29T03:04:19.729Z,17.10
2022-11-29T03:06:58.719Z,18.53
2022-11-29T03:09:37.966Z,17.50
2022-11-29T03:12:18.857Z,17.67
2022-11-29T03:14:58.180Z,17.90
2022-11-29T03:17:38.565Z,19.50
2022-11-29T03:20:23.852Z,18.17
2022-11-29T03:23:11.695Z,17.83
2022-11-29T03:25:45.567Z,20.67
2022-11-29T03:28:19.984Z,18.27
2022-11-29T03:30:54.479Z,19.63
2022-11-29T03:33:29.880Z,17.37
2022-11-29T03:36:06.422Z,19.30
2022-11-29T03:38:41.979Z,18.50
2022-11-29T03:41:22.029Z,18.87
2022-11-29T03:43:58.717Z,19.07
2022-11-29T03:46:33.978Z,19.40
2022-11-29T03:49:05.657Z,18.03
2022-11-29T03:51:48.295Z,19.33
2022-11-29T03:54:24.081Z,17.13
2022-11-29T03:56:52.970Z,18.57
2022-11-29T03:59:36.685Z,17.87
2022-11-29T04:02:31.384Z,19.27
2022-11-29T04:05:30.205Z,17.80
2022-11-29T04:08:23.163Z,18.03
2022-11-29T04:11:20.524Z,19.10
2022-11-29T04:14:14.385Z,22.23
2022-11-29T04:17:08.573Z,18.97
2022-11-29T04:20:13.102Z,17.63
2022-11-29T04:23:03.384Z,18.73
2022-11-29T04:26:02.884Z,18.67
2022-11-29T04:29:04.850Z,20.33
2022-11-29T04:31:42.343Z,19.27
2022-11-29T04:34:29.473Z,18.30
2022-11-29T04:37:20.102Z,21.20
2022-11-29T04:40:25.841Z,17.20
2022-11-29T04:43:18.994Z,19.73
2022-11-29T04:46:27.945Z,19.93
2022-11-29T04:49:20.783Z,19.37
2022-11-29T04:52:20.495Z,18.97
2022-11-29T04:54:56.021Z,19.93
2022-11-29T04:57:32.011Z,19.47
2022-11-29T05:00:08.348Z,20.57
2022-11-29T05:02:42.570Z,20.30
2022-11-29T05:05:25.288Z,18.13
2022-11-29T05:08:10.255Z,20.00
2022-11-29T05:10:46.435Z,19.47
2022-11-29T05:13:21.028Z,19.60
2022-11-29T05:16:08.673Z,20.67
2022-11-29T05:18:58.898Z,18.73
2022-11-29T05:21:39.371Z,21.67
2022-11-29T05:24:20.909Z,18.53
2022-11-29T05:26:56.656Z,20.93
2022-11-29T05:29:34.696Z,18.70
2022-11-29T05:32:23.308Z,19.40
2022-11-29T05:35:08.634Z,18.67
2022-11-29T05:37:47.050Z,21.00
2022-11-29T05:40:41.077Z,17.60
2022-11-29T05:43:21.974Z,17.93
2022-11-29T05:45:57.019Z,17.70
2022-11-29T05:48:31.230Z,19.17
2022-11-29T05:51:11.560Z,17.27
2022-11-29T05:53:51.535Z,17.90
2022-11-29T05:56:27.696Z,16.10
2022-11-29T05:59:00.561Z,19.10
2022-11-29T06:01:33.126Z,17.47
2022-11-29T06:04:11.784Z,19.20
2022-11-29T06:06:49.593Z,17.30
2022-11-29T06:09:27.683Z,19.73
2022-11-29T06:12:02.611Z,19.50
2022-11-29T06:14:53.313Z,17.53
2022-11-29T06:17:48.944Z,18.60
2022-11-29T06:20:50.316Z,20.20
2022-11-29T06:23:48.855Z,17.23
2022-11-29T06:26:36.313Z,17.90
2022-11-29T06:29:25.458Z,16.80
2022-11-29T06:32:02.636Z,18.43
2022-11-29T06:34:45.794Z,19.07
2022-11-29T06:37:18.903Z,19.13
2022-11-29T06:39:47.485Z,17.50
2022-11-29T06:42:17.658Z,17.80
2022-11-29T06:44:46.833Z,17.70
2022-11-29T06:47:24.875Z,20.37
2022-11-29T06:49:59.773Z,18.53
2022-11-29T06:52:41.304Z,19.17
2022-11-29T06:55:18.548Z,17.90
2022-11-29T06:58:05.053Z,17.90
2022-11-29T07:00:44.026Z,18.43
2022-11-29T07:03:38.904Z,16.83
2022-11-29T07:06:16.118Z,20.90
2022-11-29T07:08:45.424Z,18.30
2022-11-29T07:11:16.242Z,18.83
2022-11-29T07:13:47.174Z,18.03
2022-11-29T07:16:27.067Z,16.47
2022-11-29T07:19:12.023Z,17.97
2022-11-29T07:21:50.518Z,17.37
2022-11-29T07:24:42.504Z,17.00
2022-11-29T07:27:36.243Z,15.73
2022-11-29T07:30:15.590Z,18.00
2022-11-29T07:33:00.464Z,18.63
2022-11-29T07:35:40.276Z,18.43
2022-11-29T07:38:20.618Z,18.70
2022-11-29T07:40:57.209Z,17.87
2022-11-29T07:43:42.644Z,15.80
2022-11-29T07:46:12.527Z,16.93
2022-11-29T07:48:43.737Z,17.53
2022-11-29T07:51:12.639Z,17.23
2022-11-29T07:53:44.147Z,19.30
2022-11-29T07:56:12.890Z,17.50
2022-11-29T07:58:42.175Z,16.70
2022-11-29T08:01:12.113Z,16.80
2022-11-29T08:03:42.528Z,15.80
2022-11-29T08:06:10.922Z,15.80
2022-11-29T08:08:43.700Z,16.30
2022-11-29T08:11:29.625Z,16.13
2022-11-29T08:14:02.345Z,16.47
2022-11-29T08:16:54.745Z,15.60
2022-11-29T08:19:46.123Z,15.20
2022-11-29T08:25:26.300Z,16.73
2022-11-29T08:28:11.210Z,15.03
2022-11-29T08:30:47.286Z,16.53
2022-11-29T08:33:17.749Z,15.03
2022-11-29T08:35:46.704Z,15.33
2022-11-29T08:38:18.103Z,14.23
2022-11-29T08:40:47.776Z,15.10
2022-11-29T08:43:18.839Z,14.10
2022-11-29T08:45:47.760Z,15.70
2022-11-29T08:48:20.613Z,14.60
2022-11-29T08:50:52.050Z,14.70
2022-11-29T08:53:39.566Z,13.23
2022-11-29T08:56:41.631Z,13.90
2022-11-29T08:58:57.868Z,13.67
2022-11-29T09:01:27.309Z,13.80
2022-11-29T09:04:03.603Z,15.67
2022-11-29T09:06:33.922Z,14.77
2022-11-29T09:09:03.741Z,15.50
2022-11-29T09:11:35.086Z,13.70
2022-11-29T09:14:06.026Z,12.97
2022-11-29T09:16:37.621Z,14.33
2022-11-29T09:19:09.369Z,14.60
2022-11-29T09:21:38.056Z,14.30
2022-11-29T09:24:08.638Z,14.03
2022-11-29T09:26:38.448Z,12.93
2022-11-29T09:29:10.828Z,15.90
2022-11-29T09:31:39.649Z,13.63
2022-11-29T09:34:09.671Z,15.00
2022-11-29T09:36:40.874Z,15.30
2022-11-29T09:39:10.073Z,14.27
2022-11-29T09:42:03.217Z,14.27
2022-11-29T09:44:41.886Z,14.40
2022-11-29T09:47:29.718Z,14.20
2022-11-29T09:50:14.783Z,13.80
2022-11-29T09:53:06.067Z,14.13
2022-11-29T09:55:58.419Z,14.93
2022-11-29T09:58:41.627Z,15.37
2022-11-29T10:01:22.006Z,13.80
2022-11-29T10:06:42.129Z,14.70
2022-11-29T10:09:23.869Z,13.33
2022-11-29T10:12:03.042Z,13.90
2022-11-29T10:14:37.667Z,14.87
2022-11-29T10:20:52.155Z,14.13
2022-11-29T10:23:30.922Z,14.83
2022-11-29T10:26:03.424Z,13.90
2022-11-29T10:28:35.197Z,14.53
2022-11-29T10:31:31.462Z,14.93
2022-11-29T10:34:02.442Z,14.43
2022-11-29T10:36:36.572Z,15.00
2022-11-29T10:39:15.274Z,14.53
2022-11-29T11:12:24.740Z,14.33
2022-11-29T11:14:53.623Z,13.80
2022-11-29T11:17:26.495Z,14.30
2022-11-29T11:20:01.043Z,12.90
2022-11-29T11:22:31.391Z,15.50
2022-11-29T11:25:03.921Z,14.33
2022-11-29T11:27:39.840Z,12.83
2022-11-29T11:30:25.291Z,13.00
2022-11-29T11:33:09.007Z,12.43
2022-11-29T11:35:39.259Z,14.20
2022-11-29T11:38:16.254Z,14.77
2022-11-29T11:40:44.972Z,12.57
2022-11-29T11:43:22.049Z,14.70
2022-11-29T11:45:54.972Z,14.10
2022-11-29T11:48:24.182Z,13.60
2022-11-29T11:50:56.588Z,13.83
2022-11-29T11:53:30.007Z,13.57
2022-11-29T11:56:02.041Z,14.30
2022-11-29T11:58:36.749Z,14.50
2022-11-29T12:01:16.788Z,14.27
2022-11-29T12:03:56.329Z,12.77
2022-11-29T12:06:33.604Z,14.20
2022-11-29T12:09:08.786Z,12.67
2022-11-29T12:11:44.784Z,13.70
2022-11-29T12:14:25.327Z,13.37
2022-11-29T12:17:03.441Z,12.50
2022-11-29T12:19:41.064Z,13.00
2022-11-29T12:22:16.223Z,13.20
2022-11-29T12:24:57.273Z,13.47
2022-11-29T12:27:28.757Z,13.07
2022-11-29T12:29:58.912Z,13.30
2022-11-29T12:32:50.971Z,12.47
2022-11-29T12:35:40.955Z,14.33
2022-11-29T12:38:23.471Z,14.10
2022-11-29T12:41:04.389Z,12.47
2022-11-29T12:43:48.994Z,12.50
2022-11-29T12:46:26.119Z,11.90
2022-11-29T12:49:01.905Z,11.90
2022-11-29T12:51:40.014Z,11.57
2022-11-29T12:54:21.640Z,13.83
2022-11-29T12:56:57.810Z,13.20
2022-11-29T12:59:38.131Z,13.00
2022-11-29T13:02:23.995Z,12.57
2022-11-29T13:05:08.335Z,12.00
2022-11-29T13:07:45.165Z,11.63
2022-11-29T13:10:35.873Z,11.67
2022-11-29T13:13:18.013Z,11.90
2022-11-29T13:15:51.943Z,13.87
2022-11-29T13:18:27.426Z,11.37
2022-11-29T13:21:02.751Z,11.00
2022-11-29T13:24:07.189Z,13.00
2022-11-29T13:26:27.450Z,12.77
2022-11-29T13:28:56.472Z,10.90
2022-11-29T13:31:26.337Z,11.77
2022-11-29T13:34:06.027Z,11.63
2022-11-29T13:36:49.150Z,10.00
2022-11-29T13:39:31.049Z,12.53
2022-11-29T13:42:07.749Z,11.73
2022-11-29T13:44:43.142Z,11.17
2022-11-29T13:47:14.020Z,13.07
2022-11-29T13:49:55.212Z,10.90
2022-11-29T13:52:44.170Z,11.50
2022-11-29T13:55:34.192Z,14.10
2022-11-29T13:58:16.829Z,12.03
2022-11-29T14:00:51.774Z,12.30
2022-11-29T14:03:36.232Z,12.20
2022-11-29T14:06:21.245Z,12.77
2022-11-29T14:09:32.138Z,11.73
2022-11-29T14:12:05.781Z,13.83
2022-11-29T14:14:41.133Z,12.63
2022-11-29T14:17:35.219Z,12.60
2022-11-29T14:20:52.209Z,12.50
2022-11-29T14:23:43.502Z,12.63
2022-11-29T14:26:31.181Z,13.87
2022-11-29T14:29:00.669Z,13.40
2022-11-29T14:31:48.445Z,12.90
2022-11-29T14:34:28.058Z,12.77
2022-11-29T14:37:04.815Z,13.00
2022-11-29T14:39:43.647Z,13.07
2022-11-29T14:42:17.141Z,13.90
2022-11-29T14:44:49.016Z,12.90
2022-11-29T14:47:24.761Z,12.60
2022-11-29T14:49:55.270Z,12.33
2022-11-29T15:31:50.659Z,12.83
2022-11-29T15:34:31.065Z,12.80
2022-11-29T15:36:59.809Z,11.97
2022-11-29T15:39:31.468Z,14.70
2022-11-29T15:42:04.630Z,12.90
2022-11-29T15:44:35.278Z,12.00
2022-11-29T15:47:16.851Z,12.20
2022-11-29T15:49:46.270Z,12.77
2022-11-29T15:52:30.939Z,13.27
2022-11-29T15:55:02.299Z,13.90
2022-11-29T15:57:36.115Z,13.53
2022-11-29T16:00:09.128Z,13.50
2022-11-29T16:02:41.048Z,13.43
2022-11-29T16:05:17.422Z,11.83
2022-11-29T16:07:47.303Z,13.17
2022-11-29T16:10:19.660Z,13.30
2022-11-29T16:12:56.064Z,12.90
2022-11-29T16:15:30.214Z,13.07
2022-11-29T16:18:04.803Z,12.70
2022-11-29T16:20:34.592Z,14.90
2022-11-29T16:23:12.433Z,12.93
2022-11-29T16:26:00.205Z,13.43
2022-11-29T16:28:34.026Z,12.10
2022-11-29T16:31:02.221Z,13.17
2022-11-29T16:33:30.400Z,13.63
2022-11-29T16:36:08.052Z,13.83
2022-11-29T16:38:36.061Z,13.63
2022-11-29T16:41:07.324Z,11.80
2022-11-29T16:43:53.954Z,12.53
2022-11-29T16:46:33.738Z,13.37
2022-11-29T16:49:04.644Z,14.00
2022-11-29T16:51:43.878Z,13.23
2022-11-29T16:54:24.402Z,11.90
2022-11-29T16:56:54.167Z,11.83
2022-11-29T16:59:27.892Z,13.00
2022-11-29T17:01:56.789Z,13.33
2022-11-29T17:04:25.712Z,13.20
2022-11-29T17:06:55.985Z,12.50
2022-11-29T17:09:26.270Z,11.40
2022-11-29T17:11:55.076Z,13.77
2022-11-29T17:14:23.262Z,12.73
2022-11-29T17:16:52.145Z,11.93
2022-11-29T17:19:25.584Z,12.63
2022-11-29T17:21:55.281Z,12.00
2022-11-29T17:24:24.617Z,9.83
2022-11-29T17:26:52.971Z,10.20
2022-11-29T17:29:21.185Z,11.60
2022-11-29T17:31:50.701Z,11.17
2022-11-29T17:34:19.198Z,11.33
2022-11-29T17:36:47.657Z,10.80
2022-11-29T17:39:20.225Z,11.87
2022-11-29T17:41:48.613Z,11.53
2022-11-29T17:44:16.891Z,13.30
2022-11-29T17:46:45.060Z,11.90
2022-11-29T17:49:13.342Z,11.63
2022-11-29T17:51:57.199Z,10.83
2022-11-29T17:54:27.058Z,11.70
2022-11-29T17:56:55.173Z,12.03
2022-11-29T17:59:23.387Z,11.47
2022-11-29T18:01:51.687Z,10.30
2022-11-29T18:04:19.844Z,11.60
2022-11-29T18:06:50.476Z,10.33
2022-11-29T18:09:20.029Z,9.97
2022-11-29T18:11:50.913Z,10.30
2022-11-29T18:14:21.309Z,9.33
2022-11-29T18:16:50.109Z,8.10
2022-11-29T18:19:20.830Z,8.97
2022-11-29T18:21:50.713Z,9.23
2022-11-29T18:24:19.150Z,10.20
2022-11-29T18:26:47.838Z,9.23
2022-11-29T18:29:17.527Z,10.60
2022-11-29T18:31:46.893Z,10.10
2022-11-29T18:34:16.239Z,10.17
2022-11-29T18:36:46.085Z,9.57
2022-11-29T18:39:16.540Z,10.13
2022-11-29T18:41:46.905Z,10.30
2022-11-29T18:44:18.201Z,11.67
2022-11-29T18:46:46.767Z,9.40
2022-11-29T18:49:16.706Z,12.10
2022-11-29T18:51:46.329Z,9.10
2022-11-29T18:54:15.375Z,9.53
2022-11-29T18:56:44.220Z,9.00
2022-11-29T18:59:14.861Z,8.63
2022-11-29T19:01:45.671Z,10.43
2022-11-29T19:04:15.484Z,8.50
2022-11-29T19:06:44.359Z,9.97
2022-11-29T19:09:15.078Z,10.30
2022-11-29T19:11:43.383Z,9.30
2022-11-29T19:14:13.600Z,9.53
2022-11-29T19:16:43.346Z,9.37
2022-11-29T19:19:13.546Z,10.80
2022-11-29T19:21:42.413Z,9.73
2022-11-29T19:24:17.908Z,8.97
2022-11-29T19:26:48.007Z,9.90
2022-11-29T19:29:17.576Z,8.30
2022-11-29T19:31:45.872Z,9.07
2022-11-29T19:34:15.714Z,9.07
2022-11-29T19:36:44.986Z,9.03
2022-11-29T19:39:15.902Z,8.40
2022-11-29T19:41:45.551Z,8.30
2022-11-29T19:44:14.340Z,9.83
2022-11-29T19:46:44.489Z,9.17
2022-11-29T19:49:13.299Z,8.57
2022-11-29T19:51:42.912Z,8.47
2022-11-29T19:54:12.094Z,9.33
2022-11-29T19:56:40.998Z,9.20
2022-11-29T19:59:09.882Z,10.07
2022-11-29T20:01:41.392Z,9.70
2022-11-29T20:04:11.880Z,11.80
2022-11-29T20:06:43.328Z,10.50
2022-11-29T20:09:11.997Z,11.67
2022-11-29T20:11:40.273Z,10.00
2022-11-29T20:14:09.354Z,9.40
2022-11-29T20:16:39.297Z,8.53
2022-11-29T20:19:11.031Z,9.00
2022-11-29T20:21:44.839Z,9.17
2022-11-29T20:24:14.503Z,9.10
2022-11-29T20:26:44.539Z,10.70
2022-11-29T20:29:13.183Z,9.73
2022-11-29T20:31:49.087Z,8.77
2022-11-29T20:34:19.592Z,9.23
2022-11-29T20:37:09.475Z,8.40
2022-11-29T20:39:47.267Z,9.13
2022-11-29T20:42:41.533Z,9.37
2022-11-29T20:45:11.425Z,9.17
2022-11-29T20:47:46.552Z,8.10
2022-11-29T20:50:21.798Z,9.07
2022-11-29T20:53:04.707Z,9.10
2022-11-29T20:55:32.788Z,7.93
2022-11-29T20:58:00.908Z,9.87
2022-11-29T21:00:29.017Z,9.17
2022-11-29T21:02:57.052Z,9.57
2022-11-29T21:05:25.371Z,8.67
2022-11-29T21:07:55.835Z,9.47
2022-11-29T21:10:24.189Z,9.00
2022-11-29T21:12:53.296Z,8.83
2022-11-29T21:15:22.461Z,9.00
2022-11-29T21:17:51.109Z,8.30
2022-11-29T21:20:22.096Z,8.93
2022-11-29T21:22:59.897Z,8.50
2022-11-29T21:25:39.149Z,8.50
2022-11-29T21:28:12.421Z,8.47
2022-11-29T21:30:41.373Z,9.07
2022-11-29T21:33:10.721Z,9.47
2022-11-29T21:35:40.633Z,9.43
2022-11-29T21:38:14.660Z,9.90
2022-11-29T21:40:42.912Z,8.80
2022-11-29T21:43:10.967Z,9.30
2022-11-29T21:45:40.396Z,9.97
2022-11-29T21:48:28.850Z,9.40
2022-11-29T21:50:59.681Z,9.30
2022-11-29T21:53:29.428Z,9.70
2022-11-29T21:55:58.474Z,9.00
2022-11-29T21:58:27.168Z,9.43
2022-11-29T22:00:55.400Z,9.40
2022-11-29T22:03:23.972Z,10.33
2022-11-29T22:05:52.232Z,8.83
2022-11-29T22:08:20.466Z,10.10
2022-11-29T22:10:50.147Z,9.50
2022-11-29T22:13:18.178Z,10.23
2022-11-29T22:15:46.606Z,9.47
2022-11-29T22:18:14.823Z,8.87
2022-11-29T22:20:47.391Z,9.27
2022-11-29T22:23:15.566Z,10.10
2022-11-29T22:25:44.155Z,9.67
2022-11-29T22:28:14.683Z,11.40
2022-11-29T22:30:43.144Z,10.83
2022-11-29T22:33:13.412Z,9.73
2022-11-29T22:35:44.523Z,9.13
2022-11-29T22:38:13.218Z,8.70
2022-11-29T22:40:41.791Z,7.77
2022-11-29T22:43:10.127Z,9.67
2022-11-29T22:45:40.077Z,8.60
2022-11-29T22:48:08.843Z,8.73
2022-11-29T22:50:37.167Z,8.73
2022-11-29T22:53:05.669Z,9.53
2022-11-29T22:55:33.914Z,9.07
2022-11-29T22:58:02.232Z,9.30
2022-11-29T23:00:31.215Z,8.10
2022-11-29T23:03:00.919Z,10.07
2022-11-29T23:05:32.455Z,8.23
2022-11-29T23:08:01.317Z,9.30
2022-11-29T23:10:29.778Z,8.90
2022-11-29T23:12:58.492Z,9.00
2022-11-29T23:15:26.743Z,8.83
2022-11-29T23:17:55.198Z,8.13
2022-11-29T23:20:24.815Z,10.23
2022-11-29T23:22:53.037Z,9.00
2022-11-29T23:25:23.946Z,8.40
2022-11-29T23:27:54.137Z,9.97
2022-11-29T23:30:22.961Z,8.70
2022-11-29T23:32:51.498Z,9.10
2022-11-29T23:35:20.031Z,8.40
2022-11-29T23:37:49.822Z,8.47
2022-11-29T23:40:18.806Z,8.77
2022-11-29T23:42:52.325Z,9.77
2022-11-29T23:45:20.768Z,7.70
2022-11-29T23:47:49.029Z,8.30
2022-11-29T23:50:17.452Z,8.33
2022-11-29T23:52:45.663Z,9.93
2022-11-29T23:55:16.717Z,7.67
2022-11-29T23:57:44.813Z,8.00
